Strona główna
METAR-TAF:

METAR-TAF

Lotnisko :

Derby, Australia

Szerokość geograficzna: 17-22-12S, Długość geograficzna: 123-39-38E, wysokość: 7 m

Aktualna obserwacja pogody

Raport powstał 32 minut temu, godzina 19:06 UTC
Wiatr 5 kt od południowy wschód
Temperatura 26°C
Wilgotność 100%
Ciśnienie 1009 hPa
Widzialność 10 km lub więcej
Przerywane chmury na wysokości 1000 ft
Przerywane chmury na wysokości 11000 ft

METAR: YDBY 111906Z AUTO 14005KT 9999 // BKN010 BKN110 26/26 Q1009

czas: 03:38 (19:38 UTC)


TAF: brakujący

Obserwacja i prognoza pogody dla ponad 4000 lotnisk (raport METAR i TAF).

Dostępne stacje oznaczono żółtymi i czerwonymi punktami na mapie.

Najedź kursorem aby zobaczyć nazwę stacji.

Kliknij aby zobaczyć obserwacje i prognozy pogody.

Aby zmienić mapę: kliknij na zielony przycisk z czarnym krzyżykiem, aby powiększyć; na zielony przycisk z myślnikiem, aby pomniejszyć; na zielone strzałki, aby przejść do map sąsiednich.


METAR-TAF: